Time;durP1;ratioP1;P1;durP2;ratioP2;P2;SDS_P1;SDS_P2;PMS_P1;PMS_P2;Temp;Humidity;BMP_temperature;BMP_pressure;BME280_temperature;BME280_humidity;BME280_pressure;Samples;Min_cycle;Max_cycle;Signal;HPM_P1;HPM_P2
2021/12/01 00:02:11;;;;;;;4.67;1.90;;;;;;;5.90;87.95;99474.56;4997555;28;20227;-71
2021/12/01 00:04:37;;;;;;;6.50;2.33;;;;;;;5.90;87.90;99465.78;5007748;28;20198;-71
2021/12/01 00:07:07;;;;;;;6.50;2.00;;;;;;;5.88;88.08;99462.38;5007833;28;20211;-71
2021/12/01 00:09:33;;;;;;;4.77;2.17;;;;;;;5.86;88.10;99451.03;5004512;28;20234;-71
2021/12/01 00:12:00;;;;;;;6.67;2.70;;;;;;;5.84;88.30;99439.72;5008176;28;20233;-71
2021/12/01 00:14:26;;;;;;;7.23;2.80;;;;;;;5.82;88.57;99431.03;5008415;28;20208;-70
2021/12/01 00:16:53;;;;;;;6.43;2.53;;;;;;;5.81;88.76;99431.97;4997958;28;20218;-71
2021/12/01 00:19:21;;;;;;;6.80;3.00;;;;;;;5.80;89.09;99427.63;4998852;28;20222;-71
2021/12/01 00:21:48;;;;;;;7.83;3.07;;;;;;;5.77;89.26;99422.53;5007707;28;20230;-71
2021/12/01 00:24:14;;;;;;;7.53;2.57;;;;;;;5.77;89.23;99412.81;4999188;28;20203;-71
2021/12/01 00:26:41;;;;;;;6.30;2.17;;;;;;;5.77;89.33;99401.41;5006582;28;20211;-71
2021/12/01 00:29:07;;;;;;;8.40;2.70;;;;;;;5.77;89.30;99409.34;4996783;28;20215;-71
2021/12/01 00:31:33;;;;;;;7.40;2.53;;;;;;;5.76;90.14;99400.56;4992115;28;20242;-71
2021/12/01 00:34:02;;;;;;;4.47;2.40;;;;;;;5.78;89.67;99387.25;5009583;28;20212;-71
2021/12/01 00:36:30;;;;;;;5.80;3.43;;;;;;;5.77;89.90;99381.13;5003400;28;20208;-71
2021/12/01 00:38:57;;;;;;;5.27;2.27;;;;;;;5.79;89.80;99373.09;5001603;28;20234;-71
2021/12/01 00:41:23;;;;;;;4.03;2.47;;;;;;;5.80;89.99;99366.88;5005604;28;20227;-71
2021/12/01 00:43:50;;;;;;;5.97;2.60;;;;;;;5.80;90.14;99357.16;5000903;28;20273;-71
2021/12/01 00:46:22;;;;;;;4.57;2.67;;;;;;;5.81;90.17;99355.34;4992191;28;20219;-71
2021/12/01 00:48:49;;;;;;;5.67;3.20;;;;;;;5.80;90.32;99348.38;4990679;28;20204;-71
2021/12/01 00:51:16;;;;;;;7.87;3.27;;;;;;;5.80;90.38;99345.75;4990566;28;20220;-71
2021/12/01 00:53:45;;;;;;;5.27;2.67;;;;;;;5.80;90.48;99336.00;5005911;28;20218;-71
2021/12/01 00:56:11;;;;;;;3.60;2.40;;;;;;;5.79;90.39;99331.69;5013404;28;20230;-70
2021/12/01 00:58:38;;;;;;;5.57;2.53;;;;;;;5.79;90.35;99320.25;4998441;28;20212;-71
2021/12/01 01:01:04;;;;;;;3.63;2.23;;;;;;;5.79;90.57;99317.63;4993228;28;20227;-71
2021/12/01 01:03:32;;;;;;;3.73;2.03;;;;;;;5.78;90.61;99308.00;4998330;28;20207;-71
2021/12/01 01:05:59;;;;;;;3.53;2.00;;;;;;;5.78;90.85;99303.56;4998468;28;20210;-71
2021/12/01 01:08:26;;;;;;;3.27;2.13;;;;;;;5.78;91.18;99310.63;5013166;28;20218;-71
2021/12/01 01:16:23;;;;;;;4.37;1.60;;;;;;;5.78;91.41;99287.72;5009005;28;20231;-71
2021/12/01 01:18:53;;;;;;;2.27;1.77;;;;;;;5.78;91.35;99281.56;5008139;28;20219;-70
2021/12/01 01:21:20;;;;;;;4.13;1.60;;;;;;;5.77;91.47;99275.44;5003187;28;20713;-71
2021/12/01 01:23:47;;;;;;;2.97;1.70;;;;;;;5.78;91.51;99271.84;5009044;28;20672;-71
2021/12/01 01:26:16;;;;;;;2.27;1.50;;;;;;;5.79;91.78;99257.69;4996241;28;20570;-71
2021/12/01 01:28:44;;;;;;;1.63;1.30;;;;;;;5.80;91.89;99261.19;4997380;28;20203;-71
2021/12/01 01:31:11;;;;;;;2.43;1.37;;;;;;;5.81;91.81;99258.44;4996887;28;20239;-71
2021/12/01 01:33:38;;;;;;;2.53;1.27;;;;;;;5.81;91.93;99254.97;4996375;28;20210;-70
2021/12/01 01:36:05;;;;;;;1.70;1.10;;;;;;;5.82;92.20;99254.88;4995282;28;20227;-71
2021/12/01 01:38:32;;;;;;;1.40;1.30;;;;;;;5.83;92.16;99243.34;4995321;28;20270;-71
2021/12/01 01:40:59;;;;;;;1.30;1.07;;;;;;;5.85;92.03;99237.97;4993853;28;20270;-71
2021/12/01 01:43:27;;;;;;;4.10;1.43;;;;;;;5.88;92.20;99237.78;4992637;28;20409;-71
2021/12/01 01:45:55;;;;;;;2.33;1.63;;;;;;;5.89;92.24;99234.22;4999852;28;20207;-71
2021/12/01 01:48:29;;;;;;;2.17;1.50;;;;;;;5.90;92.68;99217.41;5000759;28;20222;-71
2021/12/01 01:50:56;;;;;;;1.57;1.03;;;;;;;5.91;92.76;99216.47;4999520;28;20227;-71
2021/12/01 01:53:24;;;;;;;1.43;1.20;;;;;;;5.93;92.70;99198.69;5000828;28;20210;-71
2021/12/01 01:55:52;;;;;;;1.20;1.00;;;;;;;5.96;93.04;99192.34;4998311;28;20207;-71
2021/12/01 01:58:19;;;;;;;1.30;0.77;;;;;;;5.98;92.82;99183.38;5007829;28;20206;-71
2021/12/01 02:00:51;;;;;;;1.10;0.90;;;;;;;6.01;93.04;99177.88;4997371;28;20277;-71
2021/12/01 02:03:19;;;;;;;2.10;0.67;;;;;;;6.03;93.37;99170.69;5001700;28;20557;-71
2021/12/01 02:05:45;;;;;;;0.70;0.70;;;;;;;6.05;93.35;99167.97;5004527;28;20293;-71
2021/12/01 02:08:17;;;;;;;0.67;0.63;;;;;;;6.07;93.30;99168.69;5002090;28;20262;-71
2021/12/01 02:10:46;;;;;;;0.97;0.67;;;;;;;6.09;93.49;99156.22;5011865;28;20458;-71
2021/12/01 02:13:13;;;;;;;1.33;0.63;;;;;;;6.10;93.19;99149.97;5005498;28;20219;-71
2021/12/01 02:15:40;;;;;;;1.30;1.10;;;;;;;6.11;93.71;99141.09;5001413;28;20202;-71
2021/12/01 02:18:07;;;;;;;0.80;0.80;;;;;;;6.13;93.66;99141.84;5002511;28;20211;-71
2021/12/01 02:20:35;;;;;;;1.80;0.73;;;;;;;6.14;93.90;99131.16;4999797;28;20239;-71
2021/12/01 02:23:02;;;;;;;0.87;0.67;;;;;;;6.15;93.72;99119.63;5008790;28;20221;-70
2021/12/01 02:25:28;;;;;;;1.03;0.57;;;;;;;6.17;93.77;99108.94;5005655;28;20214;-71
2021/12/01 02:27:56;;;;;;;0.50;0.50;;;;;;;6.18;93.96;99108.84;5002238;28;20207;-71
2021/12/01 02:30:23;;;;;;;0.97;0.40;;;;;;;6.21;94.01;99105.16;5009743;28;20204;-71
2021/12/01 02:32:49;;;;;;;0.60;0.40;;;;;;;6.22;94.49;99094.47;5003683;28;20215;-71
2021/12/01 02:35:16;;;;;;;1.50;0.70;;;;;;;6.26;94.45;99093.31;5002391;28;20210;-71
2021/12/01 02:37:44;;;;;;;0.50;0.50;;;;;;;6.26;94.82;99088.03;5011617;28;20206;-71
2021/12/01 02:40:12;;;;;;;0.73;0.37;;;;;;;6.28;94.51;99087.88;5003973;28;20223;-73
2021/12/01 02:42:38;;;;;;;0.40;0.40;;;;;;;6.31;94.55;99081.53;5011348;28;20233;-74
2021/12/01 02:45:06;;;;;;;1.00;0.40;;;;;;;6.31;94.53;99071.81;5008920;28;20679;-72
2021/12/01 02:47:32;;;;;;;0.90;0.60;;;;;;;6.34;94.63;99062.81;4999025;28;20203;-73
2021/12/01 02:49:59;;;;;;;1.10;0.50;;;;;;;6.35;95.01;99059.22;5012045;28;20213;-72
2021/12/01 02:52:25;;;;;;;0.83;0.40;;;;;;;6.36;94.87;99037.13;5005698;28;20223;-72
2021/12/01 02:54:54;;;;;;;0.43;0.40;;;;;;;6.37;94.70;99036.16;5002344;28;20245;-72
2021/12/01 02:57:21;;;;;;;0.33;0.33;;;;;;;6.39;94.84;99024.53;5007378;28;20230;-72
2021/12/01 02:59:48;;;;;;;1.30;0.40;;;;;;;6.40;94.86;99014.81;5004266;28;20235;-72
2021/12/01 03:02:16;;;;;;;0.53;0.40;;;;;;;6.41;95.15;99014.69;5007913;28;20227;-73
2021/12/01 03:04:43;;;;;;;0.37;0.30;;;;;;;6.42;95.38;99000.50;5011365;28;20669;-72
2021/12/01 03:07:10;;;;;;;0.33;0.30;;;;;;;6.45;94.85;98996.81;5001943;28;20676;-74
2021/12/01 03:09:36;;;;;;;0.63;0.40;;;;;;;6.48;95.42;98993.91;5003369;28;20207;-73
2021/12/01 03:12:05;;;;;;;1.43;0.30;;;;;;;6.50;95.38;98995.50;5013475;28;20221;-73
2021/12/01 03:14:32;;;;;;;0.93;0.20;;;;;;;6.55;95.29;98982.78;5010344;28;20662;-73
2021/12/01 03:16:58;;;;;;;0.20;0.20;;;;;;;6.62;95.58;98983.19;5009762;28;20206;-73
2021/12/01 03:19:25;;;;;;;1.40;0.40;;;;;;;6.67;95.86;98975.75;5017181;28;20203;-73
2021/12/01 03:21:51;;;;;;;2.50;1.00;;;;;;;6.74;95.86;98966.41;5005503;28;20601;-73
2021/12/01 03:24:18;;;;;;;1.40;0.30;;;;;;;6.80;96.77;98971.25;5005874;28;20286;-73
2021/12/01 03:26:44;;;;;;;1.23;0.60;;;;;;;6.91;96.60;98954.56;5007669;28;20214;-73
2021/12/01 03:29:15;;;;;;;1.57;0.40;;;;;;;7.01;96.39;98946.75;5013507;28;20207;-73
2021/12/01 03:31:42;;;;;;;0.83;0.40;;;;;;;7.09;96.71;98944.38;5032483;22;20231;-74
2021/12/01 03:34:10;;;;;;;0.40;0.40;;;;;;;7.15;96.94;98941.28;4999977;28;20215;-75
2021/12/01 03:36:37;;;;;;;1.63;0.47;;;;;;;7.21;97.08;98940.78;5004194;28;20205;-74
2021/12/01 03:39:04;;;;;;;0.80;0.30;;;;;;;7.26;97.28;98931.53;5003855;28;20203;-73
2021/12/01 03:41:30;;;;;;;0.83;0.50;;;;;;;7.35;97.56;98937.06;5002297;28;20578;-74
2021/12/01 03:43:57;;;;;;;0.50;0.50;;;;;;;7.40;97.42;98926.97;4998066;28;20203;-74
2021/12/01 03:46:25;;;;;;;0.50;0.50;;;;;;;7.47;97.75;98921.09;4992181;28;20203;-74
2021/12/01 03:48:51;;;;;;;1.00;0.60;;;;;;;7.54;97.30;98916.97;4998431;28;20214;-74
2021/12/01 03:51:18;;;;;;;0.60;0.50;;;;;;;7.56;97.55;98912.41;4990608;28;20603;-74
2021/12/01 03:53:44;;;;;;;0.47;0.47;;;;;;;7.60;97.17;98911.22;4996133;28;20207;-76
2021/12/01 03:56:11;;;;;;;0.40;0.40;;;;;;;7.65;97.58;98901.09;4989901;28;20208;-73
2021/12/01 03:58:38;;;;;;;0.70;0.70;;;;;;;7.70;97.53;98895.44;4998770;28;20200;-74
2021/12/01 04:01:04;;;;;;;0.60;0.50;;;;;;;7.75;97.70;98895.91;4996485;28;20228;-73
2021/12/01 04:03:32;;;;;;;1.37;0.77;;;;;;;7.77;97.90;98877.22;4995536;28;20684;-74
2021/12/01 04:05:59;;;;;;;0.83;0.60;;;;;;;7.80;97.60;98866.41;4994628;28;20215;-74
2021/12/01 04:08:25;;;;;;;1.13;0.50;;;;;;;7.82;97.14;98875.91;5001431;28;20215;-74
2021/12/01 04:10:52;;;;;;;0.60;0.60;;;;;;;7.83;97.19;98864.34;4991893;28;20665;-75
2021/12/01 04:13:18;;;;;;;0.70;0.70;;;;;;;7.84;97.74;98859.88;5006386;28;20227;-74
2021/12/01 04:15:45;;;;;;;0.70;0.70;;;;;;;7.87;97.32;98852.53;5000764;28;20214;-74
2021/12/01 04:18:12;;;;;;;0.70;0.70;;;;;;;7.90;96.95;98854.06;4995308;28;20303;-74
2021/12/01 04:20:39;;;;;;;0.87;0.63;;;;;;;7.90;97.58;98844.31;5006283;28;20219;-72
2021/12/01 04:23:06;;;;;;;0.80;0.80;;;;;;;7.92;96.60;98847.69;4998597;28;20223;-73
2021/12/01 04:25:33;;;;;;;0.67;0.63;;;;;;;7.92;97.54;98841.53;4999626;28;20673;-75
2021/12/01 04:28:00;;;;;;;0.67;0.60;;;;;;;7.94;96.69;98836.97;5003135;28;20684;-72
2021/12/01 04:30:27;;;;;;;0.50;0.50;;;;;;;7.92;96.88;98833.59;5006687;28;20772;-74
2021/12/01 04:32:56;;;;;;;0.97;0.83;;;;;;;7.95;97.12;98828.03;5006023;28;20238;-74
2021/12/01 04:35:24;;;;;;;0.70;0.70;;;;;;;7.96;96.94;98822.63;5009395;28;20215;-76
2021/12/01 04:37:54;;;;;;;1.13;0.70;;;;;;;7.96;97.05;98821.78;5009485;28;20683;-74
2021/12/01 04:40:21;;;;;;;3.17;0.97;;;;;;;7.95;96.38;98818.28;5003870;28;20601;-74
2021/12/01 04:42:47;;;;;;;0.60;0.60;;;;;;;7.97;96.51;98810.22;5001351;28;20230;-74
2021/12/01 04:45:18;;;;;;;0.77;0.70;;;;;;;7.96;97.04;98808.53;5004008;28;20711;-74
2021/12/01 04:47:46;;;;;;;0.70;0.70;;;;;;;7.98;96.71;98801.28;4995249;28;20240;-74
2021/12/01 04:50:14;;;;;;;0.73;0.73;;;;;;;7.98;96.34;98803.94;4994481;28;20684;-74
2021/12/01 04:52:41;;;;;;;1.53;0.73;;;;;;;8.00;96.53;98796.72;4996628;28;20609;-75
2021/12/01 04:55:10;;;;;;;0.60;0.60;;;;;;;7.98;96.55;98798.66;4994356;28;20220;-73
2021/12/01 04:57:39;;;;;;;1.23;0.60;;;;;;;7.99;96.55;98802.97;5002511;28;20206;-74
2021/12/01 05:00:07;;;;;;;1.27;0.70;;;;;;;7.98;96.25;98788.03;4993025;28;20231;-74
2021/12/01 05:02:33;;;;;;;1.83;0.70;;;;;;;7.96;96.20;98795.28;4996215;28;20219;-74
2021/12/01 05:05:00;;;;;;;0.50;0.50;;;;;;;7.91;95.87;98784.19;5000852;28;20213;-74
2021/12/01 05:07:26;;;;;;;0.50;0.50;;;;;;;7.92;96.08;98796.47;4995263;28;20204;-73
2021/12/01 05:09:54;;;;;;;0.63;0.50;;;;;;;7.92;95.75;98781.41;4996153;28;20241;-74
2021/12/01 05:12:21;;;;;;;0.50;0.50;;;;;;;7.94;96.15;98789.25;4993800;28;20602;-72
2021/12/01 05:14:48;;;;;;;0.47;0.47;;;;;;;7.94;95.39;98773.34;4999772;28;20208;-74
2021/12/01 05:17:15;;;;;;;1.17;0.43;;;;;;;7.91;95.44;98781.53;4994097;28;20214;-74
2021/12/01 05:19:41;;;;;;;0.30;0.30;;;;;;;7.89;95.39;98786.97;5008184;28;20199;-75
2021/12/01 05:22:09;;;;;;;0.30;0.23;;;;;;;7.92;95.92;98767.31;5000594;28;20237;-73
2021/12/01 05:24:36;;;;;;;0.60;0.40;;;;;;;7.93;95.10;98755.75;5006349;28;20216;-73
2021/12/01 05:27:04;;;;;;;0.53;0.40;;;;;;;7.92;94.62;98756.72;4994131;28;20215;-73
2021/12/01 05:29:32;;;;;;;0.33;0.33;;;;;;;7.94;95.16;98747.69;5000130;28;20214;-77
2021/12/01 05:31:59;;;;;;;0.30;0.30;;;;;;;7.90;94.77;98738.28;4995488;28;20239;-74
2021/12/01 05:34:27;;;;;;;0.40;0.40;;;;;;;7.93;94.41;98743.34;5001029;28;20257;-75
2021/12/01 05:36:55;;;;;;;0.30;0.30;;;;;;;7.93;94.74;98729.25;4996010;28;20599;-74
2021/12/01 05:39:21;;;;;;;0.30;0.30;;;;;;;7.90;94.65;98729.50;5002427;28;21234;-73
2021/12/01 05:41:48;;;;;;;0.70;0.30;;;;;;;7.90;94.89;98716.25;4992945;28;20235;-74
2021/12/01 05:44:15;;;;;;;0.33;0.30;;;;;;;7.91;94.29;98725.88;4999180;28;20625;-73
2021/12/01 05:46:43;;;;;;;1.30;0.30;;;;;;;7.89;94.21;98715.41;4993385;28;20226;-74
2021/12/01 05:49:09;;;;;;;0.80;0.30;;;;;;;7.88;94.38;98710.25;4997475;28;20210;-74
2021/12/01 05:51:36;;;;;;;0.57;0.30;;;;;;;7.90;94.20;98703.00;5008278;28;20754;-74
2021/12/01 05:54:03;;;;;;;0.30;0.30;;;;;;;7.87;93.90;98693.53;5007149;28;20211;-74
2021/12/01 05:56:31;;;;;;;0.30;0.30;;;;;;;7.86;93.36;98680.41;5005417;28;20199;-74
2021/12/01 05:58:58;;;;;;;1.20;0.30;;;;;;;7.87;93.10;98679.44;4999218;28;20272;-73
2021/12/01 06:01:26;;;;;;;2.53;0.47;;;;;;;7.82;93.13;98685.09;4997920;28;20260;-73
2021/12/01 06:03:53;;;;;;;0.30;0.30;;;;;;;7.85;93.27;98676.91;4995027;28;20211;-73
2021/12/01 06:06:20;;;;;;;0.60;0.30;;;;;;;7.81;92.92;98672.81;4998881;28;20597;-74
2021/12/01 06:08:47;;;;;;;0.17;0.17;;;;;;;7.80;92.72;98654.41;4995178;28;20199;-73
2021/12/01 06:11:14;;;;;;;0.30;0.20;;;;;;;7.78;92.30;98657.16;4997569;28;20214;-74
2021/12/01 06:13:41;;;;;;;0.10;0.10;;;;;;;7.83;91.79;98664.75;5001436;28;20207;-73
2021/12/01 06:16:08;;;;;;;0.23;0.23;;;;;;;7.80;91.69;98633.19;4998730;28;20200;-73
2021/12/01 06:18:35;;;;;;;0.33;0.20;;;;;;;7.80;90.99;98662.34;4991805;28;20253;-73
2021/12/01 06:21:03;;;;;;;0.90;0.30;;;;;;;7.81;91.43;98656.06;4998683;28;20247;-72
2021/12/01 06:23:30;;;;;;;0.40;0.40;;;;;;;7.83;90.72;98654.13;4999036;28;20752;-73
2021/12/01 06:25:56;;;;;;;1.33;0.50;;;;;;;7.81;90.83;98656.91;5002375;28;20600;-73
2021/12/01 06:28:23;;;;;;;0.50;0.23;;;;;;;7.79;89.72;98636.81;4996155;28;20224;-73
2021/12/01 06:30:49;;;;;;;0.73;0.40;;;;;;;7.79;90.22;98642.94;4996870;28;20196;-69
2021/12/01 06:33:16;;;;;;;0.60;0.30;;;;;;;7.77;89.95;98638.75;4997460;28;20243;-74
2021/12/01 06:35:48;;;;;;;0.93;0.40;;;;;;;7.77;89.73;98621.03;5002294;28;20298;-75
2021/12/01 06:38:17;;;;;;;0.80;0.30;;;;;;;7.77;89.74;98633.44;4999403;28;20207;-77
2021/12/01 06:40:44;;;;;;;0.50;0.50;;;;;;;7.75;89.65;98635.38;5005226;28;20227;-75
2021/12/01 06:43:10;;;;;;;0.43;0.40;;;;;;;7.76;89.79;98613.22;4996889;28;20238;-72
2021/12/01 06:45:37;;;;;;;0.70;0.57;;;;;;;7.76;88.93;98605.25;4998630;28;20214;-75
2021/12/01 06:48:04;;;;;;;1.70;0.50;;;;;;;7.78;88.66;98598.03;4998463;28;20211;-75
2021/12/01 06:50:31;;;;;;;0.20;0.20;;;;;;;7.77;88.26;98591.88;4997095;28;20211;-75
2021/12/01 06:52:57;;;;;;;0.87;0.40;;;;;;;7.80;88.28;98580.19;4996975;28;20606;-75
2021/12/01 06:55:25;;;;;;;1.40;0.47;;;;;;;7.81;87.79;98588.00;4996478;28;20211;-75
2021/12/01 06:57:52;;;;;;;0.40;0.40;;;;;;;7.84;88.53;98586.91;5000179;28;20964;-74
2021/12/01 07:00:20;;;;;;;0.40;0.40;;;;;;;7.83;87.89;98585.25;4996018;28;20699;-75
2021/12/01 07:02:47;;;;;;;0.50;0.50;;;;;;;7.80;86.31;98564.28;4995467;28;20759;-76
2021/12/01 07:05:14;;;;;;;1.27;0.90;;;;;;;7.82;87.00;98552.59;5001185;28;20218;-75
2021/12/01 07:07:40;;;;;;;0.50;0.30;;;;;;;7.82;86.39;98549.09;5000107;28;20208;-75
2021/12/01 07:10:10;;;;;;;0.83;0.50;;;;;;;7.84;87.13;98558.59;4998968;28;20215;-76
2021/12/01 07:12:38;;;;;;;0.60;0.50;;;;;;;7.83;85.89;98542.84;4998587;28;20220;-75
2021/12/01 07:15:05;;;;;;;0.60;0.40;;;;;;;7.84;86.42;98529.47;5002304;28;20215;-74
2021/12/01 07:17:32;;;;;;;0.40;0.40;;;;;;;7.81;85.52;98524.41;5002137;28;20588;-73
2021/12/01 07:19:59;;;;;;;0.37;0.33;;;;;;;7.83;86.21;98516.34;5001642;28;20206;-75
2021/12/01 07:22:25;;;;;;;1.07;0.50;;;;;;;7.82;85.68;98526.09;5009153;28;20603;-75
2021/12/01 07:24:52;;;;;;;0.40;0.40;;;;;;;7.83;85.67;98517.19;5006377;28;20227;-75
2021/12/01 07:27:18;;;;;;;1.17;0.50;;;;;;;7.85;84.61;98527.66;5005354;28;20219;-76
2021/12/01 07:29:46;;;;;;;1.30;0.53;;;;;;;7.81;85.34;98512.97;5004437;28;20219;-75
2021/12/01 07:32:13;;;;;;;0.30;0.30;;;;;;;7.84;84.11;98507.41;5003644;28;20236;-75
2021/12/01 07:34:43;;;;;;;0.53;0.50;;;;;;;7.81;84.85;98500.56;5004793;28;20203;-75
2021/12/01 07:37:10;;;;;;;0.40;0.33;;;;;;;7.80;84.61;98476.84;5000104;28;20203;-75
2021/12/01 07:39:37;;;;;;;0.40;0.40;;;;;;;7.80;83.88;98464.44;5000725;28;20204;-75
2021/12/01 07:42:04;;;;;;;1.23;0.40;;;;;;;7.80;84.43;98455.66;4998319;28;20233;-75
2021/12/01 07:44:31;;;;;;;0.57;0.40;;;;;;;7.80;83.60;98453.00;5000220;28;20290;-75
2021/12/01 07:46:59;;;;;;;0.43;0.30;;;;;;;7.76;83.21;98444.47;4999365;28;20212;-76
2021/12/01 07:49:26;;;;;;;0.47;0.40;;;;;;;7.75;83.47;98448.09;5001047;28;20215;-75
2021/12/01 07:51:53;;;;;;;0.47;0.43;;;;;;;7.77;83.40;98432.06;4999083;28;20726;-75
2021/12/01 07:54:20;;;;;;;0.50;0.50;;;;;;;7.76;82.86;98425.91;5004306;28;20590;-74
2021/12/01 07:56:48;;;;;;;1.93;0.50;;;;;;;7.79;82.68;98398.31;4998020;28;20208;-75
2021/12/01 07:59:16;;;;;;;0.73;0.53;;;;;;;7.81;82.45;98404.34;4999386;28;20215;-75
2021/12/01 08:01:43;;;;;;;0.50;0.40;;;;;;;7.83;82.62;98400.56;5002308;28;20226;-75
2021/12/01 08:04:11;;;;;;;0.70;0.50;;;;;;;7.83;82.63;98405.03;5001260;28;20206;-75
2021/12/01 08:06:39;;;;;;;1.07;0.80;;;;;;;7.85;81.44;98397.78;5008419;28;20796;-75
2021/12/01 08:09:07;;;;;;;0.47;0.40;;;;;;;7.85;81.43;98387.19;5001728;28;20221;-74
2021/12/01 08:11:34;;;;;;;0.70;0.53;;;;;;;7.90;81.45;98401.69;5003593;28;20219;-75
2021/12/01 08:14:01;;;;;;;2.00;0.90;;;;;;;7.91;81.11;98390.13;5003695;28;20213;-75
2021/12/01 08:16:28;;;;;;;1.03;0.60;;;;;;;7.87;80.72;98382.59;5004921;28;20227;-75
2021/12/01 08:18:55;;;;;;;0.73;0.67;;;;;;;7.85;81.03;98395.16;5005491;28;20202;-75
2021/12/01 08:21:24;;;;;;;1.20;0.97;;;;;;;7.89;81.28;98396.53;4999750;28;20239;-76
2021/12/01 08:23:51;;;;;;;1.43;0.73;;;;;;;7.93;81.51;98387.34;5008502;28;20213;-75
2021/12/01 08:26:17;;;;;;;0.77;0.70;;;;;;;7.92;80.78;98389.16;5000311;28;20583;-76
2021/12/01 08:28:45;;;;;;;0.87;0.70;;;;;;;7.94;80.81;98387.22;5003587;28;20213;-76
2021/12/01 08:31:12;;;;;;;1.00;0.83;;;;;;;7.94;81.53;98379.25;5002068;28;20751;-75
2021/12/01 08:33:39;;;;;;;1.33;0.73;;;;;;;7.95;81.15;98374.78;5001897;28;20284;-75
2021/12/01 08:36:06;;;;;;;0.70;0.57;;;;;;;8.00;81.12;98362.81;4998914;28;20210;-75
2021/12/01 08:38:33;;;;;;;1.40;0.87;;;;;;;8.05;80.57;98358.94;5007576;28;20209;-75
2021/12/01 08:41:00;;;;;;;0.57;0.57;;;;;;;8.05;81.00;98373.03;5003562;28;20211;-75
2021/12/01 08:43:27;;;;;;;1.33;0.63;;;;;;;8.09;81.04;98363.78;4999522;28;20204;-75
2021/12/01 08:45:53;;;;;;;0.70;0.70;;;;;;;8.05;81.02;98358.94;4999969;28;20211;-75
2021/12/01 08:48:20;;;;;;;1.70;0.77;;;;;;;8.01;81.38;98351.25;4998961;28;20211;-75
2021/12/01 08:50:46;;;;;;;0.60;0.50;;;;;;;7.98;80.67;98361.28;4998487;28;20199;-75
2021/12/01 08:53:13;;;;;;;0.30;0.30;;;;;;;8.01;81.06;98345.09;5005532;28;20599;-75
2021/12/01 08:55:41;;;;;;;1.30;0.60;;;;;;;8.01;80.87;98350.41;5007688;28;20211;-76
2021/12/01 08:58:08;;;;;;;0.80;0.63;;;;;;;8.01;81.49;98348.59;5005210;28;20211;-75
2021/12/01 09:00:37;;;;;;;0.60;0.57;;;;;;;8.03;81.03;98337.84;4996096;28;20200;-75
2021/12/01 09:03:04;;;;;;;0.90;0.70;;;;;;;8.04;81.15;98338.69;4996960;28;20313;-76
2021/12/01 09:05:31;;;;;;;0.57;0.40;;;;;;;8.06;81.58;98352.66;4997178;28;20196;-75
2021/12/01 09:07:57;;;;;;;0.43;0.27;;;;;;;8.05;81.06;98340.38;5001534;28;20215;-76
2021/12/01 09:10:24;;;;;;;0.40;0.30;;;;;;;8.04;81.67;98338.69;5000960;28;20204;-75
2021/12/01 09:12:52;;;;;;;0.30;0.30;;;;;;;8.05;80.83;98329.78;5000209;28;20723;-75
2021/12/01 09:15:18;;;;;;;0.53;0.50;;;;;;;8.02;81.66;98342.31;4995639;28;20208;-74
2021/12/01 09:17:46;;;;;;;0.73;0.30;;;;;;;8.01;81.66;98323.91;4999605;28;20203;-74
2021/12/01 09:20:13;;;;;;;1.10;0.50;;;;;;;7.99;81.10;98323.19;5001292;28;20230;-76
2021/12/01 09:22:39;;;;;;;0.63;0.57;;;;;;;8.00;82.08;98311.63;5000869;28;20286;-75
2021/12/01 09:25:07;;;;;;;0.97;0.47;;;;;;;7.97;81.74;98318.03;4997746;28;20235;-75
2021/12/01 09:27:34;;;;;;;0.50;0.50;;;;;;;7.90;83.23;98316.88;4995666;28;20199;-75
2021/12/01 09:30:02;;;;;;;0.63;0.40;;;;;;;7.89;82.95;98309.06;4994380;28;20561;-75
2021/12/01 09:32:28;;;;;;;0.30;0.20;;;;;;;7.94;83.88;98322.75;5027721;23;20274;-75
2021/12/01 09:34:55;;;;;;;0.60;0.60;;;;;;;7.94;83.17;98313.00;5026342;28;20206;-75
2021/12/01 09:37:21;;;;;;;1.77;0.53;;;;;;;7.91;83.47;98305.31;5023051;28;20222;-75
2021/12/01 09:39:48;;;;;;;1.17;0.40;;;;;;;7.90;83.87;98306.28;5024808;28;20209;-75
2021/12/01 09:42:15;;;;;;;0.53;0.30;;;;;;;7.89;83.70;98298.47;5020180;28;20230;-75
2021/12/01 09:44:41;;;;;;;0.40;0.30;;;;;;;7.85;84.24;98299.75;5030175;28;20210;-75
2021/12/01 09:47:09;;;;;;;0.57;0.43;;;;;;;7.80;84.81;98291.38;5029447;28;20202;-75
2021/12/01 09:49:36;;;;;;;1.07;0.40;;;;;;;7.86;84.82;98296.13;5030810;28;20210;-75
2021/12/01 09:52:03;;;;;;;0.43;0.33;;;;;;;7.85;84.76;98286.50;5030115;28;20225;-75
2021/12/01 09:54:30;;;;;;;0.70;0.50;;;;;;;7.85;84.52;98283.84;5029991;28;20198;-75
2021/12/01 09:56:56;;;;;;;0.37;0.37;;;;;;;7.87;84.30;98287.19;5030241;28;20216;-75
2021/12/01 09:59:23;;;;;;;0.30;0.30;;;;;;;7.85;84.78;98270.59;5030179;28;20580;-75
2021/12/01 10:01:49;;;;;;;0.30;0.30;;;;;;;7.85;84.46;98267.94;5026659;28;20241;-75
2021/12/01 10:04:17;;;;;;;0.60;0.40;;;;;;;7.81;84.83;98255.94;5029993;28;20676;-75
2021/12/01 10:06:44;;;;;;;0.97;0.37;;;;;;;7.84;84.77;98253.03;5029147;28;20209;-75
2021/12/01 10:09:12;;;;;;;0.30;0.20;;;;;;;7.85;84.33;98241.44;5029724;28;20293;-75
2021/12/01 10:11:41;;;;;;;0.20;0.20;;;;;;;7.85;85.08;98250.25;5028990;28;20218;-75
2021/12/01 10:14:10;;;;;;;0.50;0.30;;;;;;;7.86;84.49;98243.13;5027479;28;20260;-75
2021/12/01 10:16:39;;;;;;;0.70;0.53;;;;;;;7.86;84.85;98241.31;5029131;28;20210;-75
2021/12/01 10:19:08;;;;;;;0.20;0.20;;;;;;;7.92;84.30;98218.69;5029551;28;20198;-75
2021/12/01 10:21:38;;;;;;;0.53;0.40;;;;;;;7.92;84.16;98224.84;5029818;28;20214;-75
2021/12/01 10:24:12;;;;;;;0.30;0.30;;;;;;;7.92;84.18;98222.19;5029954;28;20215;-75
2021/12/01 10:26:41;;;;;;;0.23;0.20;;;;;;;7.94;84.39;98184.94;5028296;28;20202;-75
2021/12/01 10:29:11;;;;;;;0.30;0.30;;;;;;;7.95;83.59;98203.34;5027730;28;20297;-75
2021/12/01 10:31:41;;;;;;;1.43;0.80;;;;;;;7.96;84.25;98214.81;5029336;28;20222;-75
2021/12/01 10:34:20;;;;;;;0.30;0.20;;;;;;;8.01;84.23;98197.50;5026964;28;20220;-75
2021/12/01 10:36:51;;;;;;;0.50;0.37;;;;;;;7.99;83.87;98193.31;5029125;28;20206;-75
2021/12/01 10:39:18;;;;;;;0.43;0.33;;;;;;;8.00;83.91;98192.34;5028153;28;20226;-76
2021/12/01 10:41:45;;;;;;;0.30;0.30;;;;;;;8.02;84.26;98190.38;5024546;28;20214;-75
2021/12/01 10:44:13;;;;;;;0.70;0.30;;;;;;;8.00;83.57;98181.75;5026968;28;20565;-76
2021/12/01 10:46:48;;;;;;;0.50;0.50;;;;;;;8.02;83.45;98180.63;5028715;28;20198;-75
2021/12/01 10:49:16;;;;;;;0.50;0.30;;;;;;;8.06;84.02;98170.56;5027768;28;20214;-76
2021/12/01 10:51:44;;;;;;;0.30;0.20;;;;;;;8.09;83.98;98166.78;5027983;28;20545;-75
2021/12/01 10:54:17;;;;;;;0.50;0.37;;;;;;;8.10;83.65;98147.25;5025467;28;20217;-75
2021/12/01 10:56:44;;;;;;;1.50;0.30;;;;;;;8.14;83.86;98148.66;5027641;28;20233;-76
2021/12/01 10:59:12;;;;;;;0.33;0.30;;;;;;;8.21;83.40;98145.28;5025840;28;20209;-76
2021/12/01 11:01:39;;;;;;;0.63;0.50;;;;;;;8.26;83.34;98128.94;5028473;28;20734;-75
2021/12/01 11:04:06;;;;;;;0.40;0.40;;;;;;;8.24;83.12;98139.69;5027479;28;20202;-75
2021/12/01 11:06:39;;;;;;;0.60;0.20;;;;;;;8.27;82.81;98131.44;5028399;28;20202;-76
2021/12/01 11:09:07;;;;;;;1.73;0.30;;;;;;;8.25;83.60;98119.31;5026439;28;20203;-74
2021/12/01 11:11:41;;;;;;;0.50;0.50;;;;;;;8.25;82.71;98125.44;5028594;28;20236;-74
2021/12/01 11:14:11;;;;;;;1.10;0.33;;;;;;;8.27;83.31;98123.50;5027155;28;20209;-76
2021/12/01 11:16:38;;;;;;;0.30;0.20;;;;;;;8.26;83.01;98111.22;5025974;28;20678;-76
2021/12/01 11:19:05;;;;;;;0.00;0.00;;;;;;;8.29;83.67;98099.47;5027776;28;20209;-74
2021/12/01 11:21:31;;;;;;;0.20;0.20;;;;;;;8.30;82.98;98107.28;5028657;28;20554;-75
2021/12/01 11:24:00;;;;;;;0.20;0.10;;;;;;;8.30;82.85;98087.91;5028016;28;20707;-76
2021/12/01 11:26:29;;;;;;;0.30;0.20;;;;;;;8.28;82.78;98077.44;5027735;28;20268;-74
2021/12/01 11:28:59;;;;;;;0.20;0.20;;;;;;;8.28;82.71;98077.44;5028221;28;20213;-75
2021/12/01 11:31:27;;;;;;;0.73;0.20;;;;;;;8.31;82.93;98077.16;5027868;28;20573;-75
2021/12/01 11:33:56;;;;;;;0.27;0.20;;;;;;;8.33;82.48;98069.09;5027311;28;20207;-74
2021/12/01 11:36:27;;;;;;;0.13;0.10;;;;;;;8.29;83.12;98057.91;5028490;28;20668;-75
2021/12/01 11:38:54;;;;;;;0.93;0.30;;;;;;;8.29;83.57;98063.19;5027152;28;20570;-74
2021/12/01 11:41:22;;;;;;;0.10;0.10;;;;;;;8.29;82.71;98060.53;5029110;28;20206;-75
2021/12/01 11:43:50;;;;;;;1.00;0.27;;;;;;;8.30;82.73;98058.72;5027434;28;20222;-75
2021/12/01 11:46:18;;;;;;;0.20;0.20;;;;;;;8.31;83.10;98037.38;5027947;28;20213;-75
2021/12/01 11:48:47;;;;;;;0.20;0.20;;;;;;;8.34;82.77;98037.13;5028290;28;20214;-75